sensor_id;sensor_type;location;lat;lon;timestamp;P1;durP1;ratioP1;P2;durP2;ratioP2
13706;SDS011;6925;47.816;13.072;2022-12-20T00:01:06;11.70;;;5.07;;
13706;SDS011;6925;47.816;13.072;2022-12-20T00:03:34;10.88;;;5.53;;
13706;SDS011;6925;47.816;13.072;2022-12-20T00:08:31;20.67;;;9.48;;
13706;SDS011;6925;47.816;13.072;2022-12-20T00:11:00;19.75;;;8.93;;
13706;SDS011;6925;47.816;13.072;2022-12-20T00:13:30;19.23;;;7.32;;
13706;SDS011;6925;47.816;13.072;2022-12-20T00:16:02;13.48;;;6.90;;
13706;SDS011;6925;47.816;13.072;2022-12-20T00:18:33;15.25;;;6.25;;
13706;SDS011;6925;47.816;13.072;2022-12-20T00:21:01;12.30;;;5.65;;
13706;SDS011;6925;47.816;13.072;2022-12-20T00:23:31;11.23;;;4.90;;
13706;SDS011;6925;47.816;13.072;2022-12-20T00:25:59;11.43;;;4.70;;
13706;SDS011;6925;47.816;13.072;2022-12-20T00:28:29;10.18;;;4.15;;
13706;SDS011;6925;47.816;13.072;2022-12-20T00:30:56;12.00;;;5.75;;
13706;SDS011;6925;47.816;13.072;2022-12-20T00:35:53;18.08;;;9.70;;
13706;SDS011;6925;47.816;13.072;2022-12-20T00:38:21;7.65;;;3.85;;
13706;SDS011;6925;47.816;13.072;2022-12-20T00:40:59;18.60;;;9.00;;
13706;SDS011;6925;47.816;13.072;2022-12-20T00:43:28;15.43;;;6.28;;
13706;SDS011;6925;47.816;13.072;2022-12-20T00:45:56;12.10;;;5.93;;
13706;SDS011;6925;47.816;13.072;2022-12-20T00:48:24;20.83;;;9.15;;
13706;SDS011;6925;47.816;13.072;2022-12-20T00:50:51;11.30;;;4.93;;
13706;SDS011;6925;47.816;13.072;2022-12-20T00:53:23;21.33;;;8.50;;
13706;SDS011;6925;47.816;13.072;2022-12-20T00:55:50;11.68;;;5.43;;
13706;SDS011;6925;47.816;13.072;2022-12-20T00:58:19;12.80;;;4.85;;
13706;SDS011;6925;47.816;13.072;2022-12-20T01:00:47;12.43;;;5.15;;
13706;SDS011;6925;47.816;13.072;2022-12-20T01:13:09;8.05;;;3.10;;
13706;SDS011;6925;47.816;13.072;2022-12-20T01:15:38;8.70;;;3.75;;
13706;SDS011;6925;47.816;13.072;2022-12-20T01:18:05;7.88;;;3.45;;
13706;SDS011;6925;47.816;13.072;2022-12-20T01:23:00;7.63;;;2.85;;
13706;SDS011;6925;47.816;13.072;2022-12-20T01:25:28;7.13;;;3.10;;
13706;SDS011;6925;47.816;13.072;2022-12-20T01:27:55;9.18;;;4.57;;
13706;SDS011;6925;47.816;13.072;2022-12-20T01:30:22;8.45;;;3.95;;
13706;SDS011;6925;47.816;13.072;2022-12-20T01:32:51;8.57;;;4.38;;
13706;SDS011;6925;47.816;13.072;2022-12-20T01:35:19;9.32;;;3.92;;
13706;SDS011;6925;47.816;13.072;2022-12-20T01:37:46;9.05;;;4.45;;
13706;SDS011;6925;47.816;13.072;2022-12-20T01:40:14;14.07;;;5.20;;
13706;SDS011;6925;47.816;13.072;2022-12-20T01:47:46;12.55;;;6.25;;
13706;SDS011;6925;47.816;13.072;2022-12-20T01:50:15;10.98;;;4.78;;
13706;SDS011;6925;47.816;13.072;2022-12-20T01:52:42;8.70;;;3.83;;
13706;SDS011;6925;47.816;13.072;2022-12-20T01:55:14;14.82;;;6.93;;
13706;SDS011;6925;47.816;13.072;2022-12-20T01:57:46;8.13;;;4.05;;
13706;SDS011;6925;47.816;13.072;2022-12-20T02:00:19;18.85;;;8.63;;
13706;SDS011;6925;47.816;13.072;2022-12-20T02:02:47;10.20;;;4.65;;
13706;SDS011;6925;47.816;13.072;2022-12-20T02:05:18;13.38;;;6.07;;
13706;SDS011;6925;47.816;13.072;2022-12-20T02:07:50;11.75;;;5.68;;
13706;SDS011;6925;47.816;13.072;2022-12-20T02:10:20;17.67;;;8.13;;
13706;SDS011;6925;47.816;13.072;2022-12-20T02:12:51;20.65;;;9.15;;
13706;SDS011;6925;47.816;13.072;2022-12-20T02:15:30;18.67;;;8.27;;
13706;SDS011;6925;47.816;13.072;2022-12-20T02:18:13;12.77;;;6.13;;
13706;SDS011;6925;47.816;13.072;2022-12-20T02:20:55;19.60;;;7.85;;
13706;SDS011;6925;47.816;13.072;2022-12-20T02:30:04;13.77;;;7.25;;
13706;SDS011;6925;47.816;13.072;2022-12-20T02:32:36;17.60;;;7.82;;
13706;SDS011;6925;47.816;13.072;2022-12-20T02:35:08;18.08;;;8.32;;
13706;SDS011;6925;47.816;13.072;2022-12-20T02:37:45;26.08;;;11.07;;
13706;SDS011;6925;47.816;13.072;2022-12-20T02:40:18;26.00;;;9.77;;
13706;SDS011;6925;47.816;13.072;2022-12-20T02:42:50;20.92;;;9.27;;
13706;SDS011;6925;47.816;13.072;2022-12-20T02:45:24;21.98;;;10.20;;
13706;SDS011;6925;47.816;13.072;2022-12-20T02:47:54;20.55;;;9.52;;
13706;SDS011;6925;47.816;13.072;2022-12-20T02:50:26;20.42;;;9.55;;
13706;SDS011;6925;47.816;13.072;2022-12-20T02:52:57;26.38;;;10.65;;
13706;SDS011;6925;47.816;13.072;2022-12-20T02:55:30;22.55;;;9.48;;
13706;SDS011;6925;47.816;13.072;2022-12-20T02:58:08;25.95;;;10.23;;
13706;SDS011;6925;47.816;13.072;2022-12-20T03:00:40;22.33;;;10.50;;
13706;SDS011;6925;47.816;13.072;2022-12-20T03:03:10;19.25;;;7.68;;
13706;SDS011;6925;47.816;13.072;2022-12-20T03:05:52;20.13;;;8.82;;
13706;SDS011;6925;47.816;13.072;2022-12-20T03:08:21;18.95;;;9.73;;
13706;SDS011;6925;47.816;13.072;2022-12-20T03:10:50;23.90;;;10.43;;
13706;SDS011;6925;47.816;13.072;2022-12-20T03:13:18;18.35;;;9.05;;
13706;SDS011;6925;47.816;13.072;2022-12-20T03:18:14;17.25;;;7.82;;
13706;SDS011;6925;47.816;13.072;2022-12-20T03:20:42;24.02;;;11.30;;
13706;SDS011;6925;47.816;13.072;2022-12-20T03:23:09;19.50;;;8.52;;
13706;SDS011;6925;47.816;13.072;2022-12-20T03:25:37;19.75;;;8.77;;
13706;SDS011;6925;47.816;13.072;2022-12-20T03:28:04;16.15;;;7.72;;
13706;SDS011;6925;47.816;13.072;2022-12-20T03:30:32;23.58;;;8.93;;
13706;SDS011;6925;47.816;13.072;2022-12-20T03:33:00;19.13;;;7.57;;
13706;SDS011;6925;47.816;13.072;2022-12-20T03:35:28;6.75;;;2.75;;
13706;SDS011;6925;47.816;13.072;2022-12-20T03:37:55;10.18;;;4.47;;
13706;SDS011;6925;47.816;13.072;2022-12-20T03:40:24;21.20;;;9.32;;
13706;SDS011;6925;47.816;13.072;2022-12-20T03:42:51;23.77;;;10.18;;
13706;SDS011;6925;47.816;13.072;2022-12-20T03:45:19;25.00;;;12.55;;
13706;SDS011;6925;47.816;13.072;2022-12-20T03:47:47;26.02;;;12.00;;
13706;SDS011;6925;47.816;13.072;2022-12-20T03:50:16;26.83;;;11.20;;
13706;SDS011;6925;47.816;13.072;2022-12-20T03:52:43;21.25;;;10.45;;
13706;SDS011;6925;47.816;13.072;2022-12-20T03:55:11;18.42;;;9.18;;
13706;SDS011;6925;47.816;13.072;2022-12-20T03:57:38;9.20;;;3.63;;
13706;SDS011;6925;47.816;13.072;2022-12-20T04:00:06;22.30;;;10.88;;
13706;SDS011;6925;47.816;13.072;2022-12-20T04:02:36;23.83;;;11.02;;
13706;SDS011;6925;47.816;13.072;2022-12-20T04:05:04;22.60;;;11.02;;
13706;SDS011;6925;47.816;13.072;2022-12-20T04:07:33;20.67;;;8.80;;
13706;SDS011;6925;47.816;13.072;2022-12-20T04:10:01;15.00;;;6.88;;
13706;SDS011;6925;47.816;13.072;2022-12-20T04:12:28;8.50;;;2.92;;
13706;SDS011;6925;47.816;13.072;2022-12-20T04:14:56;11.60;;;4.85;;
13706;SDS011;6925;47.816;13.072;2022-12-20T04:17:23;18.92;;;8.77;;
13706;SDS011;6925;47.816;13.072;2022-12-20T04:19:52;16.83;;;8.05;;
13706;SDS011;6925;47.816;13.072;2022-12-20T04:22:20;22.27;;;8.07;;
13706;SDS011;6925;47.816;13.072;2022-12-20T04:24:49;15.40;;;6.22;;
13706;SDS011;6925;47.816;13.072;2022-12-20T04:27:17;17.40;;;7.25;;
13706;SDS011;6925;47.816;13.072;2022-12-20T04:29:45;11.25;;;5.50;;
13706;SDS011;6925;47.816;13.072;2022-12-20T04:32:12;12.82;;;5.82;;
13706;SDS011;6925;47.816;13.072;2022-12-20T04:34:40;7.53;;;2.60;;
13706;SDS011;6925;47.816;13.072;2022-12-20T04:37:07;13.77;;;5.57;;
13706;SDS011;6925;47.816;13.072;2022-12-20T04:39:35;11.57;;;4.88;;
13706;SDS011;6925;47.816;13.072;2022-12-20T04:42:04;6.70;;;3.17;;
13706;SDS011;6925;47.816;13.072;2022-12-20T04:44:31;14.65;;;5.35;;
13706;SDS011;6925;47.816;13.072;2022-12-20T04:46:58;11.27;;;4.55;;
13706;SDS011;6925;47.816;13.072;2022-12-20T04:49:26;7.28;;;2.17;;
13706;SDS011;6925;47.816;13.072;2022-12-20T04:51:53;5.22;;;2.20;;
13706;SDS011;6925;47.816;13.072;2022-12-20T04:54:41;3.85;;;1.83;;
13706;SDS011;6925;47.816;13.072;2022-12-20T04:57:09;4.68;;;2.13;;
13706;SDS011;6925;47.816;13.072;2022-12-20T04:59:36;5.75;;;2.30;;
13706;SDS011;6925;47.816;13.072;2022-12-20T05:02:03;5.90;;;2.60;;
13706;SDS011;6925;47.816;13.072;2022-12-20T05:04:31;7.45;;;2.53;;
13706;SDS011;6925;47.816;13.072;2022-12-20T05:06:58;7.03;;;2.60;;
13706;SDS011;6925;47.816;13.072;2022-12-20T05:09:26;8.02;;;3.00;;
13706;SDS011;6925;47.816;13.072;2022-12-20T05:11:56;6.78;;;3.65;;
13706;SDS011;6925;47.816;13.072;2022-12-20T05:14:25;7.45;;;3.15;;
13706;SDS011;6925;47.816;13.072;2022-12-20T05:16:52;8.68;;;3.15;;
13706;SDS011;6925;47.816;13.072;2022-12-20T05:19:20;8.20;;;4.00;;
13706;SDS011;6925;47.816;13.072;2022-12-20T05:24:53;9.38;;;3.05;;
13706;SDS011;6925;47.816;13.072;2022-12-20T05:27:38;10.05;;;3.83;;
13706;SDS011;6925;47.816;13.072;2022-12-20T05:30:08;9.27;;;4.00;;
13706;SDS011;6925;47.816;13.072;2022-12-20T05:36:09;7.90;;;3.08;;
13706;SDS011;6925;47.816;13.072;2022-12-20T05:39:02;13.20;;;6.13;;
13706;SDS011;6925;47.816;13.072;2022-12-20T05:45:01;8.93;;;3.60;;
13706;SDS011;6925;47.816;13.072;2022-12-20T05:47:34;12.45;;;4.95;;
13706;SDS011;6925;47.816;13.072;2022-12-20T05:50:01;8.00;;;3.72;;
13706;SDS011;6925;47.816;13.072;2022-12-20T05:52:29;8.88;;;4.00;;
13706;SDS011;6925;47.816;13.072;2022-12-20T05:54:57;9.40;;;4.15;;
13706;SDS011;6925;47.816;13.072;2022-12-20T05:57:24;8.00;;;4.45;;
13706;SDS011;6925;47.816;13.072;2022-12-20T05:59:54;12.38;;;4.13;;
13706;SDS011;6925;47.816;13.072;2022-12-20T06:02:21;8.85;;;3.72;;
13706;SDS011;6925;47.816;13.072;2022-12-20T06:04:50;10.80;;;5.35;;
13706;SDS011;6925;47.816;13.072;2022-12-20T06:07:18;16.60;;;7.75;;
13706;SDS011;6925;47.816;13.072;2022-12-20T06:09:45;18.95;;;8.35;;
13706;SDS011;6925;47.816;13.072;2022-12-20T06:12:12;18.17;;;7.45;;
13706;SDS011;6925;47.816;13.072;2022-12-20T06:14:40;17.50;;;8.13;;
13706;SDS011;6925;47.816;13.072;2022-12-20T06:17:07;16.00;;;6.43;;
13706;SDS011;6925;47.816;13.072;2022-12-20T06:19:36;18.88;;;8.77;;
13706;SDS011;6925;47.816;13.072;2022-12-20T06:22:07;19.05;;;8.93;;
13706;SDS011;6925;47.816;13.072;2022-12-20T06:24:35;13.43;;;5.97;;
13706;SDS011;6925;47.816;13.072;2022-12-20T06:27:03;19.50;;;8.48;;
13706;SDS011;6925;47.816;13.072;2022-12-20T06:29:31;18.65;;;7.82;;
13706;SDS011;6925;47.816;13.072;2022-12-20T06:31:59;19.95;;;8.13;;
13706;SDS011;6925;47.816;13.072;2022-12-20T06:34:27;15.82;;;6.55;;
13706;SDS011;6925;47.816;13.072;2022-12-20T06:36:54;13.82;;;6.32;;
13706;SDS011;6925;47.816;13.072;2022-12-20T06:39:23;21.67;;;9.15;;
13706;SDS011;6925;47.816;13.072;2022-12-20T06:41:52;20.20;;;9.20;;
13706;SDS011;6925;47.816;13.072;2022-12-20T06:44:20;23.20;;;9.32;;
13706;SDS011;6925;47.816;13.072;2022-12-20T06:46:47;25.90;;;9.32;;
13706;SDS011;6925;47.816;13.072;2022-12-20T06:49:14;20.10;;;9.02;;
13706;SDS011;6925;47.816;13.072;2022-12-20T06:51:41;19.08;;;7.57;;
13706;SDS011;6925;47.816;13.072;2022-12-20T06:54:09;12.32;;;5.00;;
13706;SDS011;6925;47.816;13.072;2022-12-20T06:56:38;21.35;;;8.45;;
13706;SDS011;6925;47.816;13.072;2022-12-20T06:59:05;18.77;;;7.93;;
13706;SDS011;6925;47.816;13.072;2022-12-20T07:01:33;20.23;;;9.15;;
13706;SDS011;6925;47.816;13.072;2022-12-20T07:04:00;21.50;;;9.70;;
13706;SDS011;6925;47.816;13.072;2022-12-20T07:06:27;18.35;;;7.10;;
13706;SDS011;6925;47.816;13.072;2022-12-20T07:08:54;16.33;;;7.35;;
13706;SDS011;6925;47.816;13.072;2022-12-20T07:11:22;15.63;;;7.47;;
13706;SDS011;6925;47.816;13.072;2022-12-20T07:13:55;19.95;;;9.00;;
13706;SDS011;6925;47.816;13.072;2022-12-20T07:16:23;17.65;;;7.63;;
13706;SDS011;6925;47.816;13.072;2022-12-20T07:18:51;20.48;;;8.70;;
13706;SDS011;6925;47.816;13.072;2022-12-20T07:21:19;26.70;;;11.13;;
13706;SDS011;6925;47.816;13.072;2022-12-20T07:23:47;18.58;;;8.07;;
13706;SDS011;6925;47.816;13.072;2022-12-20T07:26:14;23.67;;;10.10;;
13706;SDS011;6925;47.816;13.072;2022-12-20T07:28:41;30.25;;;12.40;;
13706;SDS011;6925;47.816;13.072;2022-12-20T07:31:10;29.23;;;12.63;;
13706;SDS011;6925;47.816;13.072;2022-12-20T07:33:38;24.75;;;11.55;;
13706;SDS011;6925;47.816;13.072;2022-12-20T07:36:06;23.98;;;10.73;;
13706;SDS011;6925;47.816;13.072;2022-12-20T07:38:35;24.80;;;11.55;;
13706;SDS011;6925;47.816;13.072;2022-12-20T07:41:05;30.13;;;13.50;;
13706;SDS011;6925;47.816;13.072;2022-12-20T07:43:33;28.75;;;13.98;;
13706;SDS011;6925;47.816;13.072;2022-12-20T07:46:01;22.73;;;11.75;;
13706;SDS011;6925;47.816;13.072;2022-12-20T07:48:30;24.45;;;10.00;;
13706;SDS011;6925;47.816;13.072;2022-12-20T07:50:59;26.10;;;10.75;;
13706;SDS011;6925;47.816;13.072;2022-12-20T07:53:31;23.27;;;11.48;;
13706;SDS011;6925;47.816;13.072;2022-12-20T07:56:04;29.77;;;12.07;;
13706;SDS011;6925;47.816;13.072;2022-12-20T07:58:34;27.13;;;12.60;;
13706;SDS011;6925;47.816;13.072;2022-12-20T08:01:04;25.75;;;12.27;;
13706;SDS011;6925;47.816;13.072;2022-12-20T08:03:35;28.35;;;12.15;;
13706;SDS011;6925;47.816;13.072;2022-12-20T08:06:06;24.75;;;12.07;;
13706;SDS011;6925;47.816;13.072;2022-12-20T08:08:35;25.63;;;12.10;;
13706;SDS011;6925;47.816;13.072;2022-12-20T08:11:06;27.27;;;11.88;;
13706;SDS011;6925;47.816;13.072;2022-12-20T08:13:35;28.95;;;11.23;;
13706;SDS011;6925;47.816;13.072;2022-12-20T08:16:03;24.88;;;10.73;;
13706;SDS011;6925;47.816;13.072;2022-12-20T08:18:31;25.73;;;10.63;;
13706;SDS011;6925;47.816;13.072;2022-12-20T08:21:00;29.00;;;11.80;;
13706;SDS011;6925;47.816;13.072;2022-12-20T08:23:27;30.95;;;11.77;;
13706;SDS011;6925;47.816;13.072;2022-12-20T08:25:54;21.48;;;10.60;;
13706;SDS011;6925;47.816;13.072;2022-12-20T08:28:21;22.75;;;11.95;;
13706;SDS011;6925;47.816;13.072;2022-12-20T08:30:49;24.98;;;11.30;;
13706;SDS011;6925;47.816;13.072;2022-12-20T08:33:16;28.35;;;11.52;;
13706;SDS011;6925;47.816;13.072;2022-12-20T08:35:45;32.92;;;13.40;;
13706;SDS011;6925;47.816;13.072;2022-12-20T08:38:14;33.10;;;13.77;;
13706;SDS011;6925;47.816;13.072;2022-12-20T08:40:41;26.90;;;13.35;;
13706;SDS011;6925;47.816;13.072;2022-12-20T08:48:03;26.17;;;11.82;;
13706;SDS011;6925;47.816;13.072;2022-12-20T08:50:30;25.30;;;11.63;;
13706;SDS011;6925;47.816;13.072;2022-12-20T08:52:58;35.50;;;14.15;;
13706;SDS011;6925;47.816;13.072;2022-12-20T08:55:26;23.85;;;10.55;;
13706;SDS011;6925;47.816;13.072;2022-12-20T08:57:54;30.70;;;12.60;;
13706;SDS011;6925;47.816;13.072;2022-12-20T09:00:21;26.25;;;12.52;;
13706;SDS011;6925;47.816;13.072;2022-12-20T09:02:48;27.20;;;11.77;;
13706;SDS011;6925;47.816;13.072;2022-12-20T09:05:17;28.10;;;11.50;;
13706;SDS011;6925;47.816;13.072;2022-12-20T09:07:44;31.73;;;13.13;;
13706;SDS011;6925;47.816;13.072;2022-12-20T09:10:11;27.98;;;11.93;;
13706;SDS011;6925;47.816;13.072;2022-12-20T09:12:40;25.83;;;11.88;;
13706;SDS011;6925;47.816;13.072;2022-12-20T09:15:08;23.63;;;10.65;;
13706;SDS011;6925;47.816;13.072;2022-12-20T09:17:36;21.67;;;10.23;;
13706;SDS011;6925;47.816;13.072;2022-12-20T09:20:04;16.33;;;7.00;;
13706;SDS011;6925;47.816;13.072;2022-12-20T09:22:32;22.73;;;10.10;;
13706;SDS011;6925;47.816;13.072;2022-12-20T09:24:59;23.63;;;10.40;;
13706;SDS011;6925;47.816;13.072;2022-12-20T09:27:26;24.70;;;10.95;;
13706;SDS011;6925;47.816;13.072;2022-12-20T09:29:55;23.17;;;11.18;;
13706;SDS011;6925;47.816;13.072;2022-12-20T09:32:22;25.17;;;10.73;;
13706;SDS011;6925;47.816;13.072;2022-12-20T09:34:49;22.27;;;10.68;;
13706;SDS011;6925;47.816;13.072;2022-12-20T09:37:17;24.75;;;10.75;;
13706;SDS011;6925;47.816;13.072;2022-12-20T09:39:44;24.98;;;9.82;;
13706;SDS011;6925;47.816;13.072;2022-12-20T09:42:14;24.13;;;11.82;;
13706;SDS011;6925;47.816;13.072;2022-12-20T09:44:41;23.67;;;10.32;;
13706;SDS011;6925;47.816;13.072;2022-12-20T09:49:41;21.55;;;9.75;;
13706;SDS011;6925;47.816;13.072;2022-12-20T09:52:20;25.75;;;12.25;;
13706;SDS011;6925;47.816;13.072;2022-12-20T09:54:56;27.20;;;11.85;;
13706;SDS011;6925;47.816;13.072;2022-12-20T09:57:37;26.23;;;11.93;;
13706;SDS011;6925;47.816;13.072;2022-12-20T10:00:14;32.20;;;14.25;;
13706;SDS011;6925;47.816;13.072;2022-12-20T10:02:44;28.80;;;12.68;;
13706;SDS011;6925;47.816;13.072;2022-12-20T10:05:12;30.27;;;13.27;;
13706;SDS011;6925;47.816;13.072;2022-12-20T10:07:45;31.50;;;13.65;;
13706;SDS011;6925;47.816;13.072;2022-12-20T10:10:24;30.27;;;13.55;;
13706;SDS011;6925;47.816;13.072;2022-12-20T10:13:10;32.55;;;13.98;;
13706;SDS011;6925;47.816;13.072;2022-12-20T10:15:46;32.67;;;14.32;;
13706;SDS011;6925;47.816;13.072;2022-12-20T10:21:14;37.03;;;16.50;;
13706;SDS011;6925;47.816;13.072;2022-12-20T10:23:45;40.83;;;16.58;;
13706;SDS011;6925;47.816;13.072;2022-12-20T10:26:21;43.70;;;18.92;;
13706;SDS011;6925;47.816;13.072;2022-12-20T10:28:49;36.58;;;16.80;;
13706;SDS011;6925;47.816;13.072;2022-12-20T10:31:16;39.70;;;18.17;;
13706;SDS011;6925;47.816;13.072;2022-12-20T10:33:46;35.53;;;16.63;;
13706;SDS011;6925;47.816;13.072;2022-12-20T10:36:17;38.90;;;15.57;;
13706;SDS011;6925;47.816;13.072;2022-12-20T10:38:51;40.42;;;17.23;;
13706;SDS011;6925;47.816;13.072;2022-12-20T10:41:20;37.67;;;15.65;;
13706;SDS011;6925;47.816;13.072;2022-12-20T10:43:50;38.83;;;16.83;;
13706;SDS011;6925;47.816;13.072;2022-12-20T10:46:21;41.97;;;16.90;;
13706;SDS011;6925;47.816;13.072;2022-12-20T10:48:50;39.33;;;16.65;;
13706;SDS011;6925;47.816;13.072;2022-12-20T10:51:18;36.75;;;17.05;;
13706;SDS011;6925;47.816;13.072;2022-12-20T10:53:51;41.00;;;16.52;;
13706;SDS011;6925;47.816;13.072;2022-12-20T10:56:20;40.55;;;18.60;;
13706;SDS011;6925;47.816;13.072;2022-12-20T10:58:55;41.13;;;17.52;;
13706;SDS011;6925;47.816;13.072;2022-12-20T11:01:25;37.33;;;15.63;;
13706;SDS011;6925;47.816;13.072;2022-12-20T11:03:58;38.85;;;17.95;;
13706;SDS011;6925;47.816;13.072;2022-12-20T11:06:39;45.42;;;19.60;;
13706;SDS011;6925;47.816;13.072;2022-12-20T11:09:21;39.60;;;16.92;;
13706;SDS011;6925;47.816;13.072;2022-12-20T11:11:58;36.00;;;17.17;;
13706;SDS011;6925;47.816;13.072;2022-12-20T11:14:28;36.30;;;15.52;;
13706;SDS011;6925;47.816;13.072;2022-12-20T11:16:56;28.48;;;14.57;;
13706;SDS011;6925;47.816;13.072;2022-12-20T11:22:27;33.28;;;15.65;;
13706;SDS011;6925;47.816;13.072;2022-12-20T11:25:09;28.40;;;13.45;;
13706;SDS011;6925;47.816;13.072;2022-12-20T11:28:06;31.65;;;14.25;;
13706;SDS011;6925;47.816;13.072;2022-12-20T11:30:46;38.53;;;18.17;;
13706;SDS011;6925;47.816;13.072;2022-12-20T11:33:25;42.22;;;16.95;;
13706;SDS011;6925;47.816;13.072;2022-12-20T11:36:14;35.20;;;15.60;;
13706;SDS011;6925;47.816;13.072;2022-12-20T11:38:49;32.42;;;14.07;;
13706;SDS011;6925;47.816;13.072;2022-12-20T11:41:23;35.35;;;16.45;;
13706;SDS011;6925;47.816;13.072;2022-12-20T11:43:57;33.60;;;14.80;;
13706;SDS011;6925;47.816;13.072;2022-12-20T11:46:40;22.23;;;9.27;;
13706;SDS011;6925;47.816;13.072;2022-12-20T11:49:26;29.08;;;13.45;;
13706;SDS011;6925;47.816;13.072;2022-12-20T11:52:12;33.60;;;13.05;;
13706;SDS011;6925;47.816;13.072;2022-12-20T11:54:52;38.60;;;16.60;;
13706;SDS011;6925;47.816;13.072;2022-12-20T11:57:29;36.25;;;15.10;;
13706;SDS011;6925;47.816;13.072;2022-12-20T12:00:03;29.95;;;13.32;;
13706;SDS011;6925;47.816;13.072;2022-12-20T12:02:32;31.17;;;13.15;;
13706;SDS011;6925;47.816;13.072;2022-12-20T12:05:04;31.45;;;13.65;;
13706;SDS011;6925;47.816;13.072;2022-12-20T12:07:34;32.35;;;14.68;;
13706;SDS011;6925;47.816;13.072;2022-12-20T12:10:05;33.10;;;14.85;;
13706;SDS011;6925;47.816;13.072;2022-12-20T12:12:42;32.80;;;15.23;;
13706;SDS011;6925;47.816;13.072;2022-12-20T12:15:15;28.65;;;13.27;;
13706;SDS011;6925;47.816;13.072;2022-12-20T12:17:50;31.63;;;13.15;;
13706;SDS011;6925;47.816;13.072;2022-12-20T12:20:24;29.55;;;13.30;;
13706;SDS011;6925;47.816;13.072;2022-12-20T12:23:03;34.83;;;14.05;;
13706;SDS011;6925;47.816;13.072;2022-12-20T12:25:36;30.20;;;13.45;;
13706;SDS011;6925;47.816;13.072;2022-12-20T12:28:03;29.88;;;13.73;;
13706;SDS011;6925;47.816;13.072;2022-12-20T12:30:34;34.08;;;14.23;;
13706;SDS011;6925;47.816;13.072;2022-12-20T12:33:08;32.25;;;14.15;;
13706;SDS011;6925;47.816;13.072;2022-12-20T12:35:50;29.55;;;14.38;;
13706;SDS011;6925;47.816;13.072;2022-12-20T12:38:37;28.70;;;12.75;;
13706;SDS011;6925;47.816;13.072;2022-12-20T12:41:34;30.17;;;13.75;;
13706;SDS011;6925;47.816;13.072;2022-12-20T12:44:36;29.95;;;14.07;;
13706;SDS011;6925;47.816;13.072;2022-12-20T12:47:12;31.08;;;13.45;;
13706;SDS011;6925;47.816;13.072;2022-12-20T12:49:47;30.00;;;13.55;;
13706;SDS011;6925;47.816;13.072;2022-12-20T12:52:28;30.58;;;13.55;;
13706;SDS011;6925;47.816;13.072;2022-12-20T12:58:12;33.90;;;14.73;;
13706;SDS011;6925;47.816;13.072;2022-12-20T13:01:04;32.50;;;13.82;;
13706;SDS011;6925;47.816;13.072;2022-12-20T13:03:39;32.97;;;15.10;;
13706;SDS011;6925;47.816;13.072;2022-12-20T13:09:35;34.78;;;14.10;;
13706;SDS011;6925;47.816;13.072;2022-12-20T13:32:56;36.38;;;15.80;;
13706;SDS011;6925;47.816;13.072;2022-12-20T13:35:46;32.08;;;15.80;;
13706;SDS011;6925;47.816;13.072;2022-12-20T13:38:37;36.35;;;15.63;;
13706;SDS011;6925;47.816;13.072;2022-12-20T13:41:19;34.15;;;14.20;;
13706;SDS011;6925;47.816;13.072;2022-12-20T13:47:13;29.77;;;14.63;;
13706;SDS011;6925;47.816;13.072;2022-12-20T13:50:17;32.10;;;15.52;;
13706;SDS011;6925;47.816;13.072;2022-12-20T13:55:22;32.47;;;13.68;;
13706;SDS011;6925;47.816;13.072;2022-12-20T13:57:52;34.15;;;15.52;;
13706;SDS011;6925;47.816;13.072;2022-12-20T14:00:21;36.83;;;16.15;;
13706;SDS011;6925;47.816;13.072;2022-12-20T14:02:50;35.28;;;15.25;;
13706;SDS011;6925;47.816;13.072;2022-12-20T14:05:21;39.42;;;16.83;;
13706;SDS011;6925;47.816;13.072;2022-12-20T14:07:53;31.15;;;14.70;;
13706;SDS011;6925;47.816;13.072;2022-12-20T14:10:25;35.13;;;15.00;;
13706;SDS011;6925;47.816;13.072;2022-12-20T14:12:54;41.00;;;16.60;;
13706;SDS011;6925;47.816;13.072;2022-12-20T14:15:23;37.13;;;16.23;;
13706;SDS011;6925;47.816;13.072;2022-12-20T14:17:52;31.42;;;15.52;;
13706;SDS011;6925;47.816;13.072;2022-12-20T14:20:23;37.92;;;15.45;;
13706;SDS011;6925;47.816;13.072;2022-12-20T14:22:56;31.88;;;14.98;;
13706;SDS011;6925;47.816;13.072;2022-12-20T14:25:29;37.72;;;16.42;;
13706;SDS011;6925;47.816;13.072;2022-12-20T14:28:01;34.88;;;14.98;;
13706;SDS011;6925;47.816;13.072;2022-12-20T14:32:59;33.28;;;15.57;;
13706;SDS011;6925;47.816;13.072;2022-12-20T14:35:29;33.50;;;15.85;;
13706;SDS011;6925;47.816;13.072;2022-12-20T14:37:57;36.15;;;16.05;;
13706;SDS011;6925;47.816;13.072;2022-12-20T14:40:30;34.53;;;15.50;;
13706;SDS011;6925;47.816;13.072;2022-12-20T14:43:13;34.92;;;14.77;;
13706;SDS011;6925;47.816;13.072;2022-12-20T14:45:41;36.90;;;15.63;;
13706;SDS011;6925;47.816;13.072;2022-12-20T14:48:12;37.00;;;15.73;;
13706;SDS011;6925;47.816;13.072;2022-12-20T14:50:51;36.88;;;16.02;;
13706;SDS011;6925;47.816;13.072;2022-12-20T14:53:19;31.13;;;14.38;;
13706;SDS011;6925;47.816;13.072;2022-12-20T14:55:53;37.22;;;15.18;;
13706;SDS011;6925;47.816;13.072;2022-12-20T14:58:24;36.75;;;16.73;;
13706;SDS011;6925;47.816;13.072;2022-12-20T15:00:54;35.28;;;14.90;;
13706;SDS011;6925;47.816;13.072;2022-12-20T15:03:23;36.55;;;14.75;;
13706;SDS011;6925;47.816;13.072;2022-12-20T15:05:53;34.83;;;15.45;;
13706;SDS011;6925;47.816;13.072;2022-12-20T15:08:22;33.45;;;15.15;;
13706;SDS011;6925;47.816;13.072;2022-12-20T15:10:56;39.58;;;16.58;;
13706;SDS011;6925;47.816;13.072;2022-12-20T15:13:29;40.63;;;18.67;;
13706;SDS011;6925;47.816;13.072;2022-12-20T15:16:01;40.55;;;18.02;;
13706;SDS011;6925;47.816;13.072;2022-12-20T15:18:31;33.53;;;16.42;;
13706;SDS011;6925;47.816;13.072;2022-12-20T15:21:01;36.92;;;17.05;;
13706;SDS011;6925;47.816;13.072;2022-12-20T15:23:31;41.85;;;16.63;;
13706;SDS011;6925;47.816;13.072;2022-12-20T15:25:59;36.33;;;15.68;;
13706;SDS011;6925;47.816;13.072;2022-12-20T15:28:27;35.08;;;16.73;;
13706;SDS011;6925;47.816;13.072;2022-12-20T15:30:54;33.90;;;15.45;;
13706;SDS011;6925;47.816;13.072;2022-12-20T15:33:22;33.50;;;14.98;;
13706;SDS011;6925;47.816;13.072;2022-12-20T15:35:52;35.33;;;15.93;;
13706;SDS011;6925;47.816;13.072;2022-12-20T15:38:33;38.53;;;16.98;;
13706;SDS011;6925;47.816;13.072;2022-12-20T15:41:33;37.03;;;16.98;;
13706;SDS011;6925;47.816;13.072;2022-12-20T15:44:29;39.78;;;16.67;;
13706;SDS011;6925;47.816;13.072;2022-12-20T15:47:03;36.90;;;17.83;;
13706;SDS011;6925;47.816;13.072;2022-12-20T15:49:44;38.50;;;16.70;;
13706;SDS011;6925;47.816;13.072;2022-12-20T15:52:27;36.53;;;17.50;;
13706;SDS011;6925;47.816;13.072;2022-12-20T15:58:21;38.70;;;18.38;;
13706;SDS011;6925;47.816;13.072;2022-12-20T16:01:17;32.25;;;16.42;;
13706;SDS011;6925;47.816;13.072;2022-12-20T16:04:17;37.40;;;17.35;;
13706;SDS011;6925;47.816;13.072;2022-12-20T16:06:49;31.45;;;15.27;;
13706;SDS011;6925;47.816;13.072;2022-12-20T16:09:58;38.25;;;16.35;;
13706;SDS011;6925;47.816;13.072;2022-12-20T17:17:24;51.58;;;25.92;;
13706;SDS011;6925;47.816;13.072;2022-12-20T17:20:11;54.92;;;27.08;;
13706;SDS011;6925;47.816;13.072;2022-12-20T17:22:41;34.72;;;17.90;;
13706;SDS011;6925;47.816;13.072;2022-12-20T17:25:25;49.33;;;24.27;;
13706;SDS011;6925;47.816;13.072;2022-12-20T17:28:06;30.42;;;12.45;;
13706;SDS011;6925;47.816;13.072;2022-12-20T17:30:41;31.63;;;14.18;;
13706;SDS011;6925;47.816;13.072;2022-12-20T17:33:18;30.30;;;13.93;;